Time;durP1;ratioP1;P1;durP2;ratioP2;P2;SDS_P1;SDS_P2;PMS_P1;PMS_P2;Temp;Humidity;BMP_temperature;BMP_pressure;BME280_temperature;BME280_humidity;BME280_pressure;Samples;Min_cycle;Max_cycle;Signal;HPM_P1;HPM_P2
2022/09/13 00:01:45;;;;;;;7.73;5.17;;;15.80;1.00;;;;;;5048191;28;20272;-72
2022/09/13 00:04:11;;;;;;;5.20;4.70;;;15.70;1.00;;;;;;5046208;28;20496;-73
2022/09/13 00:06:36;;;;;;;10.07;4.83;;;15.70;1.00;;;;;;5045871;28;20695;-72
2022/09/13 00:09:02;;;;;;;6.50;5.00;;;15.70;1.00;;;;;;5045550;28;20188;-72
2022/09/13 00:11:29;;;;;;;6.63;4.90;;;15.70;1.00;;;;;;5047290;28;20176;-72
2022/09/13 00:13:55;;;;;;;5.40;4.90;;;15.60;1.00;;;;;;5045662;28;20185;-72
2022/09/13 00:16:24;;;;;;;7.63;4.87;;;15.60;1.00;;;;;;5045009;28;20481;-72
2022/09/13 00:18:50;;;;;;;8.63;4.93;;;15.60;1.00;;;;;;5046230;28;20427;-72
2022/09/13 00:21:18;;;;;;;11.80;5.30;;;15.60;1.00;;;;;;5047488;28;20456;-72
2022/09/13 00:23:45;;;;;;;5.97;5.17;;;15.60;1.00;;;;;;5039916;28;20485;-72
2022/09/13 00:26:15;;;;;;;5.33;4.50;;;15.50;1.00;;;;;;5034740;28;20578;-72
2022/09/13 00:28:41;;;;;;;12.10;4.97;;;15.50;1.00;;;;;;5037270;28;20542;-72
2022/09/13 00:31:08;;;;;;;7.30;5.07;;;15.50;1.00;;;;;;5055620;28;20498;-72
2022/09/13 00:33:34;;;;;;;7.47;4.63;;;15.40;1.00;;;;;;5041682;28;20177;-72
2022/09/13 00:36:10;;;;;;;8.53;5.00;;;15.50;1.00;;;;;;5029047;28;21035;-72
2022/09/13 00:38:37;;;;;;;6.57;5.43;;;15.40;1.00;;;;;;5036513;28;20455;-72
2022/09/13 00:41:04;;;;;;;7.70;4.90;;;15.40;1.00;;;;;;5048332;28;20772;-73
2022/09/13 00:43:55;;;;;;;7.10;5.33;;;15.30;1.00;;;;;;5043215;28;21121;-73
2022/09/13 00:46:31;;;;;;;7.00;5.30;;;15.30;1.00;;;;;;5047897;28;20463;-72
2022/09/13 00:49:13;;;;;;;14.40;5.20;;;15.30;1.00;;;;;;5047199;28;20972;-72
2022/09/13 00:51:42;;;;;;;6.63;4.50;;;15.30;1.00;;;;;;5046624;28;20408;-72
2022/09/13 00:54:08;;;;;;;10.30;5.20;;;15.20;1.00;;;;;;5047561;28;20514;-72
2022/09/13 00:56:41;;;;;;;8.10;4.90;;;15.20;1.00;;;;;;5046435;28;20435;-72
2022/09/13 00:59:12;;;;;;;11.30;4.87;;;15.20;1.00;;;;;;5035095;28;20431;-72
2022/09/13 01:01:46;;;;;;;9.47;5.17;;;15.10;1.00;;;;;;5045282;28;20925;-72
2022/09/13 01:04:12;;;;;;;13.27;5.13;;;15.10;1.00;;;;;;5041220;28;20448;-72
2022/09/13 01:06:40;;;;;;;6.50;4.63;;;15.10;1.00;;;;;;5041695;28;20493;-72
2022/09/13 01:09:06;;;;;;;5.30;4.70;;;15.10;1.00;;;;;;5048474;28;20171;-72
2022/09/13 01:11:34;;;;;;;5.50;4.70;;;15.10;1.00;;;;;;5045303;28;20432;-73
2022/09/13 01:14:00;;;;;;;9.00;5.40;;;15.10;1.00;;;;;;5046813;28;20958;-72
2022/09/13 01:16:26;;;;;;;9.03;4.77;;;15.10;1.00;;;;;;5057231;28;20438;-73
2022/09/13 01:18:51;;;;;;;11.30;5.70;;;15.00;1.00;;;;;;5048189;28;20177;-73
2022/09/13 01:22:01;;;;;;;9.97;5.03;;;15.00;1.00;;;;;;5045910;28;20224;-73
2022/09/13 01:25:09;;;;;;;7.10;4.50;;;14.90;1.00;;;;;;5038066;28;20303;-72
2022/09/13 01:27:44;;;;;;;15.13;5.67;;;14.90;1.00;;;;;;5038397;28;20472;-73
2022/09/13 01:30:11;;;;;;;6.73;4.90;;;14.90;1.00;;;;;;5043437;28;20438;-73
2022/09/13 01:33:05;;;;;;;10.40;5.40;;;14.90;1.00;;;;;;5046162;28;20401;-72
2022/09/13 01:35:33;;;;;;;6.57;5.30;;;14.80;1.00;;;;;;5045215;28;20538;-74
2022/09/13 01:38:17;;;;;;;7.10;5.33;;;14.70;1.00;;;;;;5043428;28;20427;-72
2022/09/13 01:40:56;;;;;;;6.33;4.80;;;14.80;1.00;;;;;;5051944;28;20952;-73
2022/09/13 01:43:41;;;;;;;9.70;5.20;;;14.80;1.00;;;;;;5044667;28;20424;-72
2022/09/13 01:46:20;;;;;;;6.70;4.80;;;14.70;1.00;;;;;;5043513;28;20458;-72
2022/09/13 01:49:10;;;;;;;7.03;5.03;;;14.60;1.00;;;;;;5041897;28;20504;-72
2022/09/13 01:51:59;;;;;;;5.43;4.80;;;14.60;1.00;;;;;;5049471;28;20423;-72
2022/09/13 01:54:56;;;;;;;9.90;5.00;;;14.60;1.00;;;;;;5044908;28;20743;-72
2022/09/13 01:57:52;;;;;;;11.70;4.90;;;14.60;1.00;;;;;;5045495;28;20491;-72
2022/09/13 02:00:17;;;;;;;7.00;5.07;;;14.60;1.00;;;;;;5040537;28;20771;-72
2022/09/13 02:03:17;;;;;;;7.57;4.70;;;14.60;1.00;;;;;;5048880;28;20530;-72
2022/09/13 02:05:56;;;;;;;5.93;4.80;;;14.50;1.00;;;;;;5040000;28;20220;-72
2022/09/13 02:08:31;;;;;;;9.00;4.80;;;14.40;1.00;;;;;;5048074;28;20431;-72
2022/09/13 02:11:02;;;;;;;11.53;5.77;;;14.40;1.00;;;;;;5049702;28;20425;-72
2022/09/13 02:13:34;;;;;;;7.83;4.90;;;14.40;1.00;;;;;;5046203;28;20439;-72
2022/09/13 02:16:07;;;;;;;7.60;4.60;;;14.40;1.00;;;;;;5043284;28;20419;-72
2022/09/13 02:18:43;;;;;;;5.43;4.90;;;14.30;1.00;;;;;;5049631;28;20440;-72
2022/09/13 02:21:17;;;;;;;9.93;4.50;;;14.40;1.00;;;;;;5048305;28;20427;-72
2022/09/13 02:24:00;;;;;;;7.10;4.70;;;14.40;1.00;;;;;;5049443;28;20500;-72
2022/09/13 02:26:29;;;;;;;5.70;5.00;;;14.40;1.00;;;;;;5045477;28;20734;-72
2022/09/13 02:28:59;;;;;;;10.10;4.73;;;14.20;1.00;;;;;;5047944;28;20447;-72
2022/09/13 02:31:35;;;;;;;7.87;5.00;;;14.20;1.00;;;;;;5049101;28;20428;-72
2022/09/13 02:34:08;;;;;;;6.13;4.90;;;14.10;1.00;;;;;;5041845;28;20504;-72
2022/09/13 02:36:39;;;;;;;7.30;4.40;;;14.00;1.00;;;;;;5043756;28;20905;-72
2022/09/13 02:39:11;;;;;;;9.23;4.80;;;14.00;1.00;;;;;;5041567;28;20427;-72
2022/09/13 02:41:55;;;;;;;6.93;4.60;;;14.00;1.00;;;;;;5048724;28;20427;-72
2022/09/13 02:44:20;;;;;;;5.57;4.97;;;14.00;1.00;;;;;;5048078;28;20427;-72
2022/09/13 02:47:02;;;;;;;12.13;4.80;;;14.00;1.00;;;;;;5048211;28;20471;-72
2022/09/13 02:49:53;;;;;;;8.43;5.27;;;14.00;1.00;;;;;;5049728;28;20612;-72
2022/09/13 02:52:33;;;;;;;10.77;5.77;;;14.10;1.00;;;;;;5034246;28;20950;-72
2022/09/13 02:55:14;;;;;;;6.67;4.90;;;14.20;1.00;;;;;;5050252;28;20423;-72
2022/09/13 02:57:51;;;;;;;12.17;5.30;;;14.20;1.00;;;;;;5040741;28;20450;-73
2022/09/13 03:00:16;;;;;;;9.60;4.80;;;14.20;1.00;;;;;;5049067;28;20447;-72
2022/09/13 03:02:44;;;;;;;6.43;4.70;;;14.20;1.00;;;;;;5050086;28;20412;-72
2022/09/13 03:05:10;;;;;;;7.20;4.60;;;14.20;1.00;;;;;;5049044;28;20750;-72
2022/09/13 03:07:35;;;;;;;5.50;4.57;;;14.20;1.00;;;;;;5049718;28;20510;-72
2022/09/13 03:10:05;;;;;;;11.53;5.17;;;14.20;1.00;;;;;;5049430;28;20670;-72
2022/09/13 03:12:56;;;;;;;7.83;4.93;;;14.20;1.00;;;;;;5049012;28;20652;-73
2022/09/13 03:15:36;;;;;;;6.60;4.27;;;14.20;1.00;;;;;;5045485;28;20526;-72
2022/09/13 03:18:37;;;;;;;9.10;5.20;;;14.20;1.00;;;;;;5042978;28;20455;-72
2022/09/13 03:21:08;;;;;;;7.93;4.27;;;14.20;1.00;;;;;;5019052;28;20444;-73
2022/09/13 03:24:24;;;;;;;5.47;4.47;;;14.20;1.00;;;;;;5044178;28;20435;-72
2022/09/13 03:27:08;;;;;;;7.13;4.23;;;14.20;1.00;;;;;;5035420;28;20475;-72
2022/09/13 03:29:36;;;;;;;7.10;5.10;;;14.20;1.00;;;;;;5037141;28;20441;-72
2022/09/13 03:32:07;;;;;;;5.20;4.67;;;14.20;1.00;;;;;;5041692;28;20467;-72
2022/09/13 03:35:01;;;;;;;6.37;4.77;;;14.10;1.00;;;;;;5047244;28;20536;-72
2022/09/13 03:37:47;;;;;;;9.00;4.53;;;14.10;1.00;;;;;;5042331;28;20837;-72
2022/09/13 03:40:19;;;;;;;7.40;5.20;;;14.10;1.00;;;;;;5048226;28;20995;-72
2022/09/13 03:42:57;;;;;;;6.87;4.53;;;14.00;1.00;;;;;;5047252;28;20431;-72
2022/09/13 03:45:27;;;;;;;7.23;4.70;;;14.00;1.00;;;;;;5044957;28;20459;-72
2022/09/13 03:47:54;;;;;;;7.10;4.90;;;13.90;1.00;;;;;;5039960;28;20432;-72
2022/09/13 03:50:22;;;;;;;7.07;4.63;;;13.90;1.00;;;;;;5048575;28;20502;-72
2022/09/13 03:52:54;;;;;;;6.93;4.60;;;14.00;1.00;;;;;;5046629;28;20451;-72
2022/09/13 03:55:21;;;;;;;6.10;5.30;;;14.00;1.00;;;;;;5049568;28;20472;-72
2022/09/13 03:57:46;;;;;;;5.20;4.53;;;14.00;1.00;;;;;;5046840;28;20534;-72
2022/09/13 04:00:14;;;;;;;7.33;5.50;;;14.00;1.00;;;;;;5045251;28;20514;-72
2022/09/13 04:02:39;;;;;;;8.70;5.13;;;13.90;1.00;;;;;;5044578;28;20553;-72
2022/09/13 04:05:05;;;;;;;8.57;4.80;;;13.90;1.00;;;;;;5046789;28;20423;-72
2022/09/13 04:07:31;;;;;;;6.17;4.70;;;13.80;1.00;;;;;;5047305;28;20608;-72
2022/09/13 04:09:57;;;;;;;13.43;5.03;;;13.50;1.00;;;;;;5047902;28;20423;-72
2022/09/13 04:12:22;;;;;;;6.10;5.40;;;13.90;1.00;;;;;;5048476;28;20169;-72
2022/09/13 04:14:48;;;;;;;7.10;4.80;;;13.90;1.00;;;;;;5041074;28;20178;-72
2022/09/13 04:17:14;;;;;;;5.20;4.57;;;14.00;1.00;;;;;;5039190;28;20185;-73
2022/09/13 04:19:40;;;;;;;8.70;4.60;;;14.10;1.00;;;;;;5046542;28;20174;-72
2022/09/13 04:22:05;;;;;;;6.57;4.87;;;14.10;1.00;;;;;;5039167;28;20438;-72
2022/09/13 04:24:31;;;;;;;7.30;5.23;;;14.10;1.00;;;;;;5049084;28;20172;-72
2022/09/13 04:26:57;;;;;;;11.27;5.20;;;14.20;2.40;;;;;;5040967;28;20209;-72
2022/09/13 04:29:24;;;;;;;6.13;5.30;;;14.20;3.30;;;;;;5047919;28;20180;-72
2022/09/13 04:31:52;;;;;;;11.10;5.43;;;14.20;3.00;;;;;;5047331;28;20538;-72
2022/09/13 04:34:17;;;;;;;5.67;4.90;;;14.30;3.60;;;;;;5047897;28;20847;-72
2022/09/13 04:36:44;;;;;;;6.80;5.17;;;14.40;2.20;;;;;;5044379;28;20538;-72
2022/09/13 04:39:12;;;;;;;5.30;4.80;;;14.40;2.50;;;;;;5043734;28;20213;-72
2022/09/13 04:41:39;;;;;;;8.60;5.03;;;14.40;2.40;;;;;;5040443;28;20432;-73
2022/09/13 04:44:04;;;;;;;9.70;4.80;;;14.50;1.50;;;;;;5046251;28;20431;-72
2022/09/13 04:46:30;;;;;;;5.30;4.80;;;14.50;1.00;;;;;;5046905;28;20482;-72
2022/09/13 04:48:56;;;;;;;8.33;4.70;;;14.60;1.00;;;;;;5048796;28;20192;-72
2022/09/13 04:51:22;;;;;;;9.63;4.90;;;14.60;1.00;;;;;;5047633;28;20205;-72
2022/09/13 04:53:53;;;;;;;13.60;5.07;;;14.60;1.00;;;;;;5047441;28;20180;-72
2022/09/13 04:56:19;;;;;;;10.90;5.00;;;14.60;1.00;;;;;;5044876;28;20454;-72
2022/09/13 04:58:44;;;;;;;7.90;4.93;;;14.70;1.00;;;;;;5045563;28;20438;-72
2022/09/13 05:01:10;;;;;;;9.00;5.10;;;14.70;1.00;;;;;;5048398;28;20664;-72
2022/09/13 05:03:37;;;;;;;8.00;5.50;;;14.70;1.00;;;;;;5043832;28;20185;-72
2022/09/13 05:06:04;;;;;;;5.70;5.00;;;14.70;1.00;;;;;;5048186;28;20466;-72
2022/09/13 05:08:30;;;;;;;13.20;4.77;;;14.70;1.00;;;;;;5046906;28;20518;-72
2022/09/13 05:10:57;;;;;;;9.07;4.90;;;14.80;1.00;;;;;;5047022;28;20411;-72
2022/09/13 05:13:22;;;;;;;7.77;5.30;;;14.80;1.00;;;;;;5044918;28;20428;-72
2022/09/13 05:15:48;;;;;;;9.70;5.00;;;14.80;1.00;;;;;;5060939;28;20431;-72
2022/09/13 05:18:14;;;;;;;9.70;4.87;;;14.90;1.00;;;;;;5048939;28;20205;-72
2022/09/13 05:20:39;;;;;;;10.20;4.80;;;15.00;1.00;;;;;;5039789;28;20223;-72
2022/09/13 05:23:04;;;;;;;12.17;4.80;;;15.00;1.00;;;;;;5043940;28;20189;-72
2022/09/13 05:25:30;;;;;;;6.97;4.93;;;15.10;1.00;;;;;;5052728;28;20200;-72
2022/09/13 05:27:55;;;;;;;5.00;4.50;;;15.10;1.00;;;;;;5043990;28;20676;-73
2022/09/13 05:30:21;;;;;;;7.43;5.17;;;15.10;1.00;;;;;;5049239;28;20345;-72
2022/09/13 05:32:46;;;;;;;6.17;4.80;;;15.10;1.00;;;;;;5048790;28;20591;-72
2022/09/13 05:35:12;;;;;;;12.03;4.80;;;15.20;1.00;;;;;;5048300;28;20697;-72
2022/09/13 05:37:38;;;;;;;9.90;4.50;;;15.20;1.00;;;;;;5039395;28;20280;-72
2022/09/13 05:40:04;;;;;;;5.40;4.67;;;15.20;1.00;;;;;;5052382;28;20630;-72
2022/09/13 05:42:29;;;;;;;6.60;4.77;;;15.30;1.00;;;;;;5047478;28;20195;-72
2022/09/13 05:44:56;;;;;;;9.10;4.57;;;15.40;1.00;;;;;;5042341;28;20435;-72
2022/09/13 05:47:21;;;;;;;6.60;4.60;;;15.50;1.00;;;;;;5044237;28;20201;-72
2022/09/13 05:49:47;;;;;;;7.03;5.20;;;15.50;1.00;;;;;;5051891;28;20761;-73
2022/09/13 05:52:12;;;;;;;9.17;4.80;;;15.60;1.00;;;;;;5050301;28;20179;-73
2022/09/13 05:54:38;;;;;;;12.00;4.97;;;15.60;1.00;;;;;;5049989;28;20259;-72
2022/09/13 05:57:03;;;;;;;7.13;4.30;;;15.60;1.00;;;;;;5045052;28;20201;-72
2022/09/13 05:59:30;;;;;;;7.47;4.97;;;15.60;1.00;;;;;;5049133;28;20177;-72
2022/09/13 06:01:56;;;;;;;7.90;4.80;;;15.70;1.00;;;;;;5044811;28;20262;-72
2022/09/13 06:04:21;;;;;;;6.93;4.67;;;15.70;1.00;;;;;;5045984;28;21001;-72
2022/09/13 06:06:47;;;;;;;6.60;4.73;;;15.80;1.00;;;;;;5039775;28;20428;-73
2022/09/13 06:09:12;;;;;;;11.30;5.30;;;15.80;1.00;;;;;;5045819;28;20552;-72
2022/09/13 06:11:38;;;;;;;8.33;4.60;;;15.90;1.00;;;;;;5048692;28;20253;-72
2022/09/13 06:14:03;;;;;;;6.43;4.67;;;16.10;1.00;;;;;;5046379;28;20182;-72
2022/09/13 06:16:29;;;;;;;6.80;4.63;;;16.40;1.00;;;;;;5051334;28;20219;-72
2022/09/13 06:18:54;;;;;;;4.97;4.47;;;16.70;1.00;;;;;;5040261;28;20625;-73
2022/09/13 06:21:22;;;;;;;10.03;4.70;;;17.00;1.00;;;;;;5042325;28;20189;-77
2022/09/13 06:23:52;;;;;;;5.73;5.13;;;17.20;1.00;;;;;;5043906;28;20444;-77
2022/09/13 06:26:21;;;;;;;8.47;4.70;;;17.30;1.00;;;;;;5063906;28;20489;-77
2022/09/13 06:28:48;;;;;;;5.50;4.50;;;17.50;1.00;;;;;;5049172;28;20448;-75
2022/09/13 06:31:16;;;;;;;6.60;4.80;;;17.70;1.00;;;;;;5051784;28;20998;-80
2022/09/13 06:33:42;;;;;;;8.43;5.13;;;17.90;1.00;;;;;;5039508;28;20506;-76
2022/09/13 06:36:11;;;;;;;6.77;5.07;;;18.10;1.00;;;;;;5045484;28;20455;-78
2022/09/13 06:38:38;;;;;;;6.20;4.40;;;18.20;1.00;;;;;;5050674;28;20525;-78
2022/09/13 06:41:09;;;;;;;7.87;5.40;;;18.20;1.00;;;;;;5053805;28;20431;-77
2022/09/13 06:43:35;;;;;;;6.00;5.13;;;18.20;1.00;;;;;;5058596;28;21009;-79
2022/09/13 06:46:06;;;;;;;7.37;5.70;;;18.20;1.00;;;;;;5050745;28;20458;-78
2022/09/13 06:48:37;;;;;;;9.63;5.10;;;18.20;1.00;;;;;;5044871;28;20430;-78
2022/09/13 06:51:06;;;;;;;6.93;4.87;;;18.20;1.00;;;;;;5045214;28;21169;-77
2022/09/13 06:53:33;;;;;;;5.93;5.20;;;18.20;1.00;;;;;;5049649;28;20424;-78
2022/09/13 06:56:29;;;;;;;5.90;5.00;;;18.30;1.00;;;;;;5050773;28;20430;-78
2022/09/13 06:58:57;;;;;;;5.27;4.77;;;18.40;1.00;;;;;;5041475;28;20440;-78
2022/09/13 07:01:29;;;;;;;6.93;5.07;;;18.40;1.00;;;;;;5040228;28;20431;-78
2022/09/13 07:04:01;;;;;;;5.70;4.90;;;18.50;1.00;;;;;;5043382;28;20439;-77
2022/09/13 07:06:29;;;;;;;7.60;4.63;;;18.50;1.00;;;;;;5047437;28;20490;-80
2022/09/13 07:08:56;;;;;;;7.03;4.83;;;18.50;1.00;;;;;;5043230;28;20442;-76
2022/09/13 07:11:24;;;;;;;9.47;6.40;;;18.60;1.00;;;;;;5040215;28;20920;-78
2022/09/13 07:13:54;;;;;;;7.00;5.30;;;18.10;1.00;;;;;;5041237;28;20435;-78
2022/09/13 07:16:22;;;;;;;6.43;5.10;;;18.70;1.00;;;;;;5042708;28;20463;-76
2022/09/13 07:18:55;;;;;;;8.27;5.13;;;18.90;1.00;;;;;;5039182;28;20458;-77
2022/09/13 07:21:22;;;;;;;11.03;5.13;;;19.00;1.00;;;;;;5044599;28;20424;-80
2022/09/13 07:23:47;;;;;;;11.10;5.40;;;19.10;1.00;;;;;;5036187;28;20528;-79
2022/09/13 07:26:14;;;;;;;6.00;5.20;;;19.20;1.00;;;;;;5038361;28;20546;-78
2022/09/13 07:28:41;;;;;;;7.97;5.93;;;19.30;1.00;;;;;;5038349;28;20252;-73
2022/09/13 07:31:14;;;;;;;7.50;6.03;;;19.40;1.00;;;;;;5037630;28;20416;-73
2022/09/13 07:33:41;;;;;;;9.93;6.40;;;19.40;1.00;;;;;;5048172;28;20510;-74
2022/09/13 07:36:08;;;;;;;7.83;5.77;;;19.60;1.00;;;;;;5048885;28;20439;-74
2022/09/13 07:38:39;;;;;;;11.17;5.80;;;19.80;1.00;;;;;;5045811;28;20405;-74
2022/09/13 07:41:08;;;;;;;7.90;5.40;;;19.90;1.00;;;;;;5032022;28;20604;-72
2022/09/13 07:43:35;;;;;;;9.40;5.50;;;20.10;1.00;;;;;;5030597;28;20429;-74
2022/09/13 07:46:02;;;;;;;7.30;5.77;;;20.20;1.00;;;;;;5050592;28;20521;-75
2022/09/13 07:48:29;;;;;;;7.97;5.93;;;20.40;1.00;;;;;;5032354;28;20417;-73
2022/09/13 07:51:01;;;;;;;9.33;6.50;;;20.50;1.00;;;;;;5041779;28;20427;-74
2022/09/13 07:53:28;;;;;;;7.30;5.17;;;20.60;1.00;;;;;;5045297;28;20750;-72
2022/09/13 07:55:59;;;;;;;8.30;5.23;;;20.80;1.00;;;;;;5045274;28;20459;-75
2022/09/13 07:58:25;;;;;;;6.63;5.10;;;21.40;1.00;;;;;;5029322;28;20412;-74
2022/09/13 08:00:50;;;;;;;7.63;5.63;;;22.10;1.00;;;;;;5030555;28;20462;-75
2022/09/13 08:03:16;;;;;;;8.07;6.10;;;22.60;1.00;;;;;;5029703;28;20198;-73
2022/09/13 08:05:42;;;;;;;12.13;6.20;;;22.90;1.00;;;;;;5032059;28;20710;-73
2022/09/13 08:08:07;;;;;;;12.43;6.43;;;23.10;1.00;;;;;;5048167;28;20230;-74
2022/09/13 08:10:33;;;;;;;7.80;5.60;;;22.90;1.00;;;;;;5050421;28;20593;-74
2022/09/13 08:12:59;;;;;;;9.03;6.43;;;22.60;1.00;;;;;;5041378;28;20173;-74
2022/09/13 08:15:25;;;;;;;7.27;5.87;;;22.30;1.00;;;;;;5054049;28;20442;-74
2022/09/13 08:17:52;;;;;;;6.90;5.80;;;22.10;1.00;;;;;;5037670;28;20424;-74
2022/09/13 08:20:18;;;;;;;7.10;5.67;;;22.00;1.00;;;;;;5028946;28;20627;-73
2022/09/13 08:22:44;;;;;;;8.43;5.80;;;22.10;1.00;;;;;;5029586;28;20448;-73
2022/09/13 08:25:10;;;;;;;9.93;5.33;;;22.30;1.00;;;;;;5030046;28;20212;-74
2022/09/13 08:27:35;;;;;;;7.40;5.37;;;22.60;1.00;;;;;;5029176;28;20251;-73
2022/09/13 08:30:01;;;;;;;8.13;4.93;;;22.80;1.00;;;;;;5030849;28;20567;-74
2022/09/13 08:32:26;;;;;;;6.73;5.00;;;22.80;1.00;;;;;;5029059;28;20177;-74
2022/09/13 08:34:52;;;;;;;10.10;5.47;;;22.70;1.00;;;;;;5030092;28;20537;-73
2022/09/13 08:37:17;;;;;;;6.50;5.00;;;22.50;1.00;;;;;;5029641;28;20212;-73
2022/09/13 08:39:43;;;;;;;8.57;5.13;;;22.40;1.00;;;;;;5031105;28;20497;-74
2022/09/13 08:42:20;;;;;;;6.80;4.60;;;22.80;1.00;;;;;;5027948;28;20196;-74
2022/09/13 08:44:50;;;;;;;7.87;5.10;;;23.30;1.00;;;;;;5043481;28;20258;-74
2022/09/13 08:47:29;;;;;;;7.03;4.87;;;23.70;1.00;;;;;;5044200;28;20830;-75
2022/09/13 08:50:09;;;;;;;7.60;5.30;;;25.00;1.00;;;;;;5029873;28;20462;-75
2022/09/13 08:53:13;;;;;;;7.30;4.87;;;25.70;1.00;;;;;;5029450;28;20403;-76
2022/09/13 08:55:50;;;;;;;6.37;4.97;;;26.70;1.00;;;;;;5029769;28;20443;-74
2022/09/13 08:58:52;;;;;;;6.90;4.50;;;27.60;1.00;;;;;;5046731;28;20417;-75
2022/09/13 09:01:35;;;;;;;8.27;4.60;;;27.80;1.00;;;;;;5033792;28;20203;-75
2022/09/13 09:04:24;;;;;;;7.67;4.60;;;28.10;1.00;;;;;;5041269;28;20451;-75
2022/09/13 09:07:05;;;;;;;9.70;4.53;;;28.40;1.00;;;;;;5029373;28;20212;-75
2022/09/13 09:09:39;;;;;;;5.53;4.10;;;29.00;1.00;;;;;;5029757;28;20165;-75
2022/09/13 09:12:16;;;;;;;4.90;3.80;;;29.60;1.00;;;;;;5028889;28;20165;-76
2022/09/13 09:14:57;;;;;;;8.87;4.37;;;29.50;1.00;;;;;;5049510;28;20168;-76
2022/09/13 09:17:27;;;;;;;7.23;4.30;;;29.00;1.00;;;;;;5064071;28;20195;-75
2022/09/13 09:20:00;;;;;;;7.63;4.17;;;28.50;1.00;;;;;;5069460;28;20676;-75
2022/09/13 09:22:33;;;;;;;5.33;4.60;;;29.10;1.00;;;;;;5046334;28;20184;-75
2022/09/13 09:24:59;;;;;;;5.53;4.20;;;29.90;1.00;;;;;;5046245;28;20173;-76
2022/09/13 09:27:25;;;;;;;6.90;4.63;;;29.90;1.00;;;;;;5044298;28;20206;-74
2022/09/13 09:29:57;;;;;;;6.87;4.30;;;29.40;1.00;;;;;;5040347;28;20264;-74
2022/09/13 09:32:46;;;;;;;8.87;4.63;;;29.50;1.00;;;;;;5048179;28;20172;-75
2022/09/13 09:35:27;;;;;;;7.40;4.30;;;29.90;1.00;;;;;;5048202;28;20173;-75
2022/09/13 09:38:24;;;;;;;7.17;4.83;;;29.40;1.00;;;;;;5042161;28;20275;-74
2022/09/13 09:40:51;;;;;;;5.03;4.30;;;28.60;1.00;;;;;;5028765;28;20652;-74
2022/09/13 09:43:25;;;;;;;6.10;4.70;;;28.10;1.00;;;;;;5029310;28;20630;-74
2022/09/13 09:45:53;;;;;;;19.30;4.77;;;28.20;1.00;;;;;;5058881;28;20218;-74
2022/09/13 09:48:23;;;;;;;5.70;4.43;;;28.80;1.00;;;;;;5067739;28;20180;-74
2022/09/13 09:50:57;;;;;;;7.10;4.40;;;29.40;1.00;;;;;;5068648;28;20168;-75
2022/09/13 09:53:28;;;;;;;5.30;4.17;;;29.60;1.00;;;;;;5038443;28;20586;-75
2022/09/13 09:56:17;;;;;;;5.33;3.80;;;29.90;1.00;;;;;;5042286;28;20278;-75
2022/09/13 09:58:45;;;;;;;6.15;4.03;;;30.20;1.00;;;;;;5039195;28;20644;-74
2022/09/13 10:01:24;;;;;;;6.03;4.20;;;30.30;1.00;;;;;;5036321;28;20189;-76
2022/09/13 10:04:15;;;;;;;5.23;3.80;;;30.00;1.00;;;;;;5030212;28;20189;-75
2022/09/13 10:06:42;;;;;;;5.47;3.90;;;29.10;1.00;;;;;;5039742;28;20293;-75
2022/09/13 10:09:21;;;;;;;4.40;3.30;;;29.20;1.00;;;;;;5045344;28;20184;-78
2022/09/13 10:11:57;;;;;;;4.72;3.65;;;30.30;1.00;;;;;;5044334;28;20184;-75
2022/09/13 10:14:41;;;;;;;4.72;3.70;;;31.30;1.00;;;;;;5042167;28;20176;-75
2022/09/13 10:17:22;;;;;;;6.32;3.92;;;31.10;1.00;;;;;;5056772;28;20219;-75
2022/09/13 10:19:54;;;;;;;6.35;3.92;;;31.20;1.00;;;;;;5063824;28;20199;-75
2022/09/13 10:22:19;;;;;;;5.60;4.10;;;30.50;1.00;;;;;;5051014;28;20298;-75
2022/09/13 10:24:45;;;;;;;5.33;3.90;;;29.80;1.00;;;;;;5051251;28;20674;-74
2022/09/13 10:27:31;;;;;;;7.03;3.87;;;29.30;1.00;;;;;;5049098;28;20609;-75
2022/09/13 10:30:00;;;;;;;8.33;4.07;;;29.10;1.00;;;;;;5034426;28;20181;-74
2022/09/13 10:32:27;;;;;;;9.40;4.20;;;28.90;1.00;;;;;;5030876;28;20579;-75
2022/09/13 10:34:56;;;;;;;4.70;3.53;;;28.60;1.00;;;;;;5045370;28;20173;-74
2022/09/13 10:37:30;;;;;;;6.23;3.40;;;28.30;1.00;;;;;;5049312;28;20230;-74
2022/09/13 10:40:15;;;;;;;8.50;3.73;;;28.30;1.00;;;;;;5040975;28;20177;-75
2022/09/13 10:42:51;;;;;;;7.67;3.60;;;28.00;1.00;;;;;;5028926;28;20177;-74
2022/09/13 10:45:23;;;;;;;6.00;4.00;;;28.20;1.00;;;;;;5055396;28;20572;-74
2022/09/13 10:47:53;;;;;;;7.23;4.00;;;28.50;1.00;;;;;;5066044;28;20172;-75
2022/09/13 10:50:20;;;;;;;6.87;3.97;;;28.60;1.00;;;;;;5054659;28;20324;-74
2022/09/13 10:52:46;;;;;;;6.10;4.17;;;28.80;1.00;;;;;;5048914;28;20177;-75
2022/09/13 10:55:27;;;;;;;5.50;4.20;;;29.00;1.00;;;;;;5050510;28;20230;-75
2022/09/13 10:58:02;;;;;;;6.03;4.20;;;28.90;1.00;;;;;;5046959;28;20185;-75
2022/09/13 11:00:53;;;;;;;6.30;4.00;;;28.80;1.00;;;;;;5050512;28;20164;-75
2022/09/13 11:03:58;;;;;;;7.63;4.27;;;28.90;1.00;;;;;;5042140;28;20716;-75
2022/09/13 11:06:44;;;;;;;7.20;3.90;;;29.50;1.00;;;;;;5031649;28;20244;-75
2022/09/13 11:09:16;;;;;;;10.67;4.20;;;29.90;1.00;;;;;;5039956;28;20189;-75
2022/09/13 11:11:56;;;;;;;10.80;3.80;;;30.40;1.00;;;;;;5049349;28;20167;-75
2022/09/13 11:14:36;;;;;;;4.78;3.50;;;30.70;1.00;;;;;;5047301;28;20175;-75
2022/09/13 11:17:44;;;;;;;4.95;3.58;;;30.70;1.00;;;;;;5053982;28;20207;-75
2022/09/13 11:20:17;;;;;;;7.77;3.50;;;30.20;1.00;;;;;;5041731;28;20580;-75
2022/09/13 11:23:24;;;;;;;5.97;3.60;;;29.60;1.00;;;;;;5030010;28;20204;-75
2022/09/13 11:26:35;;;;;;;4.33;3.47;;;29.00;1.00;;;;;;5030713;28;20212;-75
2022/09/13 11:29:26;;;;;;;8.50;3.80;;;28.20;1.00;;;;;;5039405;28;20223;-75
2022/09/13 11:32:16;;;;;;;6.73;3.80;;;27.60;1.00;;;;;;5028381;28;20193;-74
2022/09/13 11:34:44;;;;;;;5.43;3.73;;;27.40;1.00;;;;;;5033127;28;20246;-76
2022/09/13 11:37:34;;;;;;;8.53;4.00;;;27.60;1.00;;;;;;5039640;28;21163;-75
2022/09/13 11:40:17;;;;;;;13.40;4.30;;;27.70;1.00;;;;;;5046455;28;20197;-76
2022/09/13 11:43:00;;;;;;;4.10;3.40;;;27.90;1.00;;;;;;5049174;28;20450;-75
2022/09/13 11:45:44;;;;;;;4.10;3.30;;;28.00;1.00;;;;;;5053069;28;20462;-76
2022/09/13 11:48:29;;;;;;;5.53;3.80;;;28.10;1.00;;;;;;5027810;28;20173;-76
2022/09/13 11:51:00;;;;;;;9.43;3.70;;;28.40;1.00;;;;;;5043880;28;20168;-75
2022/09/13 11:53:39;;;;;;;6.30;4.07;;;28.60;1.00;;;;;;5043638;28;20178;-75
2022/09/13 11:56:21;;;;;;;6.00;4.13;;;28.80;1.00;;;;;;5036117;28;20219;-75
2022/09/13 11:58:49;;;;;;;12.43;3.90;;;29.00;1.00;;;;;;5029331;28;20239;-76
2022/09/13 12:01:27;;;;;;;5.90;3.20;;;29.10;1.00;;;;;;5033259;28;20548;-77
2022/09/13 12:04:06;;;;;;;5.33;3.40;;;29.70;1.00;;;;;;5036167;28;20261;-77
2022/09/13 12:06:38;;;;;;;8.93;3.57;;;30.00;1.00;;;;;;5035442;28;20201;-76
2022/09/13 12:09:13;;;;;;;4.80;3.67;;;30.50;1.00;;;;;;5031369;28;20169;-76
2022/09/13 12:11:44;;;;;;;6.18;3.85;;;30.70;1.00;;;;;;5037379;28;20676;-76
2022/09/13 12:14:17;;;;;;;12.43;3.80;;;30.80;1.00;;;;;;5037690;28;20178;-76
2022/09/13 12:16:44;;;;;;;7.17;4.10;;;30.60;1.00;;;;;;5046721;28;20658;-76
2022/09/13 12:19:24;;;;;;;6.18;3.70;;;30.80;1.00;;;;;;5040808;28;20241;-76
2022/09/13 12:21:52;;;;;;;6.10;3.53;;;30.70;1.00;;;;;;5044828;28;20176;-76
2022/09/13 12:25:04;;;;;;;4.93;3.47;;;30.30;1.00;;;;;;5049116;28;20183;-75
2022/09/13 12:27:39;;;;;;;5.60;3.43;;;30.20;1.00;;;;;;5037704;28;20212;-75
2022/09/13 12:30:20;;;;;;;4.55;3.50;;;30.50;1.00;;;;;;5046665;28;20183;-76
2022/09/13 12:32:47;;;;;;;4.73;3.30;;;30.50;1.00;;;;;;5030449;28;20200;-76
2022/09/13 12:35:23;;;;;;;4.97;3.30;;;30.00;1.00;;;;;;5035820;28;20237;-76
2022/09/13 12:38:00;;;;;;;5.37;3.60;;;29.80;1.00;;;;;;5037653;28;20168;-76
2022/09/13 12:41:03;;;;;;;10.33;3.53;;;30.20;1.00;;;;;;5046489;28;20171;-76
2022/09/13 12:43:57;;;;;;;8.80;3.60;;;30.20;1.00;;;;;;5045944;28;20180;-76
2022/09/13 12:46:23;;;;;;;5.47;3.30;;;29.80;1.00;;;;;;5055295;28;20231;-76
2022/09/13 12:49:03;;;;;;;5.33;3.20;;;29.30;1.00;;;;;;5068490;28;20684;-76
2022/09/13 12:52:01;;;;;;;4.50;3.60;;;28.90;1.00;;;;;;5048648;28;20176;-76
2022/09/13 12:54:47;;;;;;;5.40;3.90;;;28.40;1.00;;;;;;5044301;28;20664;-76
2022/09/13 12:57:17;;;;;;;6.50;3.60;;;27.80;1.00;;;;;;5040362;28;20203;-76
2022/09/13 13:00:11;;;;;;;4.63;3.57;;;27.60;1.00;;;;;;5043880;28;20172;-76
2022/09/13 13:02:57;;;;;;;14.53;3.97;;;27.40;1.00;;;;;;5046234;28;20455;-76
2022/09/13 13:05:42;;;;;;;9.13;3.90;;;27.40;1.00;;;;;;5041571;28;20230;-77
2022/09/13 13:08:28;;;;;;;9.03;3.43;;;27.20;1.00;;;;;;5037815;28;20950;-76
2022/09/13 13:11:12;;;;;;;10.17;3.50;;;27.20;1.00;;;;;;5039633;28;20507;-76
2022/09/13 13:13:44;;;;;;;8.20;3.23;;;27.20;1.00;;;;;;5042481;28;20415;-76
2022/09/13 13:16:30;;;;;;;9.60;3.40;;;27.30;1.00;;;;;;5047175;28;20526;-76
2022/09/13 13:19:03;;;;;;;7.67;3.80;;;27.50;1.00;;;;;;5038540;28;20476;-76
2022/09/13 13:21:38;;;;;;;5.40;3.20;;;27.90;1.00;;;;;;5047099;28;20439;-76
2022/09/13 13:24:17;;;;;;;11.20;3.73;;;28.20;1.00;;;;;;5039016;28;20192;-76
2022/09/13 13:26:50;;;;;;;7.07;3.50;;;28.70;1.00;;;;;;5031356;28;20709;-76
2022/09/13 13:29:24;;;;;;;15.30;3.60;;;29.80;1.00;;;;;;5041967;28;20180;-76